sensor_id;sensor_type;location;lat;lon;timestamp;pressure;altitude;pressure_sealevel;temperature;humidity
54870;BME280;40756;-37.950;145.008;2022-09-17T00:01:28;99704.12;;;13.26;44.18
54870;BME280;40756;-37.950;145.008;2022-09-17T00:03:59;99706.41;;;13.70;44.10
54870;BME280;40756;-37.950;145.008;2022-09-17T00:06:29;99700.70;;;13.26;44.53
54870;BME280;40756;-37.950;145.008;2022-09-17T00:08:59;99711.56;;;12.73;44.91
54870;BME280;40756;-37.950;145.008;2022-09-17T00:11:30;99708.69;;;12.96;44.18
54870;BME280;40756;-37.950;145.008;2022-09-17T00:14:02;99706.40;;;13.49;43.70
54870;BME280;40756;-37.950;145.008;2022-09-17T00:16:34;99708.20;;;12.53;44.79
54870;BME280;40756;-37.950;145.008;2022-09-17T00:19:04;99708.48;;;13.29;44.33
54870;BME280;40756;-37.950;145.008;2022-09-17T00:21:34;99713.89;;;12.55;44.69
54870;BME280;40756;-37.950;145.008;2022-09-17T00:24:05;99719.89;;;12.48;45.34
54870;BME280;40756;-37.950;145.008;2022-09-17T00:26:35;99711.54;;;12.89;44.56
54870;BME280;40756;-37.950;145.008;2022-09-17T00:29:06;99710.11;;;12.69;44.48
54870;BME280;40756;-37.950;145.008;2022-09-17T00:31:37;99699.79;;;13.23;44.13
54870;BME280;40756;-37.950;145.008;2022-09-17T00:34:07;99701.81;;;12.23;44.77
54870;BME280;40756;-37.950;145.008;2022-09-17T00:36:38;99711.38;;;12.15;45.78
54870;BME280;40756;-37.950;145.008;2022-09-17T00:39:10;99706.40;;;12.88;45.22
54870;BME280;40756;-37.950;145.008;2022-09-17T00:41:40;99708.87;;;12.52;45.62
54870;BME280;40756;-37.950;145.008;2022-09-17T00:44:47;99704.12;;;12.82;45.10
54870;BME280;40756;-37.950;145.008;2022-09-17T00:47:22;99703.90;;;12.79;45.06
54870;BME280;40756;-37.950;145.008;2022-09-17T00:49:55;99708.13;;;12.45;46.08
54870;BME280;40756;-37.950;145.008;2022-09-17T00:52:27;99706.42;;;12.83;45.48
54870;BME280;40756;-37.950;145.008;2022-09-17T00:55:03;99708.88;;;12.37;46.81
54870;BME280;40756;-37.950;145.008;2022-09-17T00:57:34;99700.71;;;12.23;47.91
54870;BME280;40756;-37.950;145.008;2022-09-17T01:00:05;99700.47;;;12.95;47.09
54870;BME280;40756;-37.950;145.008;2022-09-17T01:02:35;99700.49;;;12.23;47.68
54870;BME280;40756;-37.950;145.008;2022-09-17T01:05:06;99700.28;;;12.33;48.45
54870;BME280;40756;-37.950;145.008;2022-09-17T01:07:44;99700.46;;;12.86;48.51
54870;BME280;40756;-37.950;145.008;2022-09-17T01:10:42;99695.15;;;13.07;48.91
54870;BME280;40756;-37.950;145.008;2022-09-17T01:13:24;99689.87;;;12.94;48.93
54870;BME280;40756;-37.950;145.008;2022-09-17T01:16:04;99692.81;;;12.54;49.83
54870;BME280;40756;-37.950;145.008;2022-09-17T01:18:47;99680.52;;;12.54;49.64
54870;BME280;40756;-37.950;145.008;2022-09-17T01:21:37;99675.57;;;13.17;49.45
54870;BME280;40756;-37.950;145.008;2022-09-17T01:25:14;99689.65;;;12.44;49.28
54870;BME280;40756;-37.950;145.008;2022-09-17T01:28:13;99691.10;;;12.26;48.99
54870;BME280;40756;-37.950;145.008;2022-09-17T01:31:27;99701.27;;;11.89;49.88
54870;BME280;40756;-37.950;145.008;2022-09-17T01:34:04;99680.76;;;12.36;49.41
54870;BME280;40756;-37.950;145.008;2022-09-17T01:36:45;99694.27;;;12.23;49.74
54870;BME280;40756;-37.950;145.008;2022-09-17T01:39:26;99689.49;;;11.51;50.56
54870;BME280;40756;-37.950;145.008;2022-09-17T01:42:05;99687.38;;;11.97;50.21
54870;BME280;40756;-37.950;145.008;2022-09-17T01:44:39;99684.54;;;12.02;50.19
54870;BME280;40756;-37.950;145.008;2022-09-17T01:47:14;99686.23;;;11.87;49.63
54870;BME280;40756;-37.950;145.008;2022-09-17T01:49:46;99689.39;;;12.21;49.67
54870;BME280;40756;-37.950;145.008;2022-09-17T01:52:17;99678.27;;;11.11;49.47
54870;BME280;40756;-37.950;145.008;2022-09-17T01:54:50;99679.14;;;11.48;50.77
54870;BME280;40756;-37.950;145.008;2022-09-17T01:57:26;99679.34;;;11.49;49.38
54870;BME280;40756;-37.950;145.008;2022-09-17T02:00:00;99680.40;;;11.78;50.35
54870;BME280;40756;-37.950;145.008;2022-09-17T02:02:34;99672.47;;;12.08;50.44
54870;BME280;40756;-37.950;145.008;2022-09-17T02:05:10;99681.73;;;11.11;51.10
54870;BME280;40756;-37.950;145.008;2022-09-17T02:07:46;99676.97;;;11.96;50.63
54870;BME280;40756;-37.950;145.008;2022-09-17T02:10:21;99675.10;;;11.14;51.29
54870;BME280;40756;-37.950;145.008;2022-09-17T02:12:55;99679.65;;;11.67;51.94
54870;BME280;40756;-37.950;145.008;2022-09-17T02:15:28;99686.33;;;11.09;52.76
54870;BME280;40756;-37.950;145.008;2022-09-17T02:18:04;99683.66;;;11.50;52.49
54870;BME280;40756;-37.950;145.008;2022-09-17T02:20:41;99691.78;;;11.25;52.12
54870;BME280;40756;-37.950;145.008;2022-09-17T02:23:17;99696.15;;;11.19;55.33
54870;BME280;40756;-37.950;145.008;2022-09-17T02:25:56;99697.46;;;11.36;55.95
54870;BME280;40756;-37.950;145.008;2022-09-17T02:28:32;99685.83;;;10.71;56.81
54870;BME280;40756;-37.950;145.008;2022-09-17T02:31:05;99690.26;;;10.96;57.67
54870;BME280;40756;-37.950;145.008;2022-09-17T02:33:36;99689.90;;;11.02;58.10
54870;BME280;40756;-37.950;145.008;2022-09-17T02:36:07;99680.95;;;10.79;58.42
54870;BME280;40756;-37.950;145.008;2022-09-17T02:38:40;99677.96;;;11.40;58.14
54870;BME280;40756;-37.950;145.008;2022-09-17T02:41:15;99677.22;;;11.95;57.43
54870;BME280;40756;-37.950;145.008;2022-09-17T02:43:54;99668.80;;;12.17;56.94
54870;BME280;40756;-37.950;145.008;2022-09-17T02:46:42;99661.27;;;11.55;56.67
54870;BME280;40756;-37.950;145.008;2022-09-17T02:49:26;99652.72;;;12.10;57.02
54870;BME280;40756;-37.950;145.008;2022-09-17T02:52:05;99643.90;;;12.41;56.37
54870;BME280;40756;-37.950;145.008;2022-09-17T02:54:45;99648.56;;;11.68;56.55
54870;BME280;40756;-37.950;145.008;2022-09-17T02:57:22;99650.33;;;11.69;56.49
54870;BME280;40756;-37.950;145.008;2022-09-17T02:59:59;99647.65;;;11.99;55.85
54870;BME280;40756;-37.950;145.008;2022-09-17T03:02:37;99642.37;;;12.31;56.61
54870;BME280;40756;-37.950;145.008;2022-09-17T03:05:09;99635.88;;;12.54;55.79
54870;BME280;40756;-37.950;145.008;2022-09-17T03:07:39;99628.21;;;12.60;53.39
54870;BME280;40756;-37.950;145.008;2022-09-17T03:10:08;99617.79;;;13.38;52.23
54870;BME280;40756;-37.950;145.008;2022-09-17T03:12:38;99622.24;;;13.58;50.26
54870;BME280;40756;-37.950;145.008;2022-09-17T03:15:09;99614.17;;;13.07;51.10
54870;BME280;40756;-37.950;145.008;2022-09-17T03:17:38;99617.18;;;12.89;51.18
54870;BME280;40756;-37.950;145.008;2022-09-17T03:20:09;99603.63;;;12.79;51.20
54870;BME280;40756;-37.950;145.008;2022-09-17T03:22:38;99578.93;;;13.07;50.34
54870;BME280;40756;-37.950;145.008;2022-09-17T03:25:10;99566.48;;;13.60;49.93
54870;BME280;40756;-37.950;145.008;2022-09-17T03:27:40;99553.97;;;13.82;50.02
54870;BME280;40756;-37.950;145.008;2022-09-17T03:30:10;99546.86;;;13.51;49.07
54870;BME280;40756;-37.950;145.008;2022-09-17T03:32:39;99549.61;;;12.67;49.10
54870;BME280;40756;-37.950;145.008;2022-09-17T03:35:09;99557.89;;;12.84;48.54
54870;BME280;40756;-37.950;145.008;2022-09-17T03:37:38;99555.08;;;13.91;48.73
54870;BME280;40756;-37.950;145.008;2022-09-17T03:40:09;99565.19;;;12.83;48.36
54870;BME280;40756;-37.950;145.008;2022-09-17T03:42:38;99568.57;;;12.73;48.77
54870;BME280;40756;-37.950;145.008;2022-09-17T03:45:09;99574.38;;;12.79;49.42
54870;BME280;40756;-37.950;145.008;2022-09-17T03:47:39;99585.32;;;11.87;52.01
54870;BME280;40756;-37.950;145.008;2022-09-17T03:50:09;99557.58;;;12.47;52.85
54870;BME280;40756;-37.950;145.008;2022-09-17T03:52:38;99571.08;;;12.11;53.99
54870;BME280;40756;-37.950;145.008;2022-09-17T03:55:08;99573.42;;;12.03;54.43
54870;BME280;40756;-37.950;145.008;2022-09-17T03:57:38;99593.67;;;11.14;55.66
54870;BME280;40756;-37.950;145.008;2022-09-17T04:00:08;99608.33;;;10.19;57.81
54870;BME280;40756;-37.950;145.008;2022-09-17T04:02:38;99606.86;;;10.91;57.59
54870;BME280;40756;-37.950;145.008;2022-09-17T04:05:09;99605.85;;;9.80;58.42
54870;BME280;40756;-37.950;145.008;2022-09-17T04:07:40;99595.50;;;10.53;58.27
54870;BME280;40756;-37.950;145.008;2022-09-17T04:10:10;99595.20;;;10.48;59.54
54870;BME280;40756;-37.950;145.008;2022-09-17T04:12:40;99611.37;;;10.19;59.71
54870;BME280;40756;-37.950;145.008;2022-09-17T04:15:10;99598.83;;;10.79;59.67
54870;BME280;40756;-37.950;145.008;2022-09-17T04:17:39;99559.68;;;10.45;60.28
54870;BME280;40756;-37.950;145.008;2022-09-17T04:20:10;99573.69;;;10.66;60.88
54870;BME280;40756;-37.950;145.008;2022-09-17T04:22:40;99586.74;;;10.30;63.46
54870;BME280;40756;-37.950;145.008;2022-09-17T04:25:10;99602.34;;;10.56;63.92
54870;BME280;40756;-37.950;145.008;2022-09-17T04:27:39;99590.70;;;10.63;63.42
54870;BME280;40756;-37.950;145.008;2022-09-17T04:30:10;99585.01;;;11.15;61.28
54870;BME280;40756;-37.950;145.008;2022-09-17T04:32:40;99565.92;;;13.05;60.58
54870;BME280;40756;-37.950;145.008;2022-09-17T04:35:11;99587.92;;;12.55;58.41
54870;BME280;40756;-37.950;145.008;2022-09-17T04:37:41;99585.46;;;12.42;57.62
54870;BME280;40756;-37.950;145.008;2022-09-17T04:40:11;99579.00;;;12.45;56.01
54870;BME280;40756;-37.950;145.008;2022-09-17T04:42:40;99576.33;;;12.26;55.04
54870;BME280;40756;-37.950;145.008;2022-09-17T04:45:10;99575.97;;;12.00;55.32
54870;BME280;40756;-37.950;145.008;2022-09-17T04:47:40;99570.17;;;12.14;53.37
54870;BME280;40756;-37.950;145.008;2022-09-17T04:50:10;99573.37;;;12.01;53.85
54870;BME280;40756;-37.950;145.008;2022-09-17T04:52:43;99571.04;;;11.65;52.57
54870;BME280;40756;-37.950;145.008;2022-09-17T04:55:13;99576.30;;;11.92;53.51
54870;BME280;40756;-37.950;145.008;2022-09-17T04:57:46;99580.27;;;11.90;53.59
54870;BME280;40756;-37.950;145.008;2022-09-17T05:00:17;99579.30;;;11.33;54.02
54870;BME280;40756;-37.950;145.008;2022-09-17T05:02:48;99588.52;;;12.12;53.77
54870;BME280;40756;-37.950;145.008;2022-09-17T05:05:19;99582.38;;;11.26;53.86
54870;BME280;40756;-37.950;145.008;2022-09-17T05:07:48;99585.89;;;11.86;54.85
54870;BME280;40756;-37.950;145.008;2022-09-17T05:10:20;99589.08;;;11.30;55.24
54870;BME280;40756;-37.950;145.008;2022-09-17T05:12:50;99598.66;;;11.07;55.53
54870;BME280;40756;-37.950;145.008;2022-09-17T05:15:21;99597.54;;;12.16;54.92
54870;BME280;40756;-37.950;145.008;2022-09-17T05:17:51;99603.73;;;11.98;54.87
54870;BME280;40756;-37.950;145.008;2022-09-17T05:20:21;99603.99;;;11.21;56.14
54870;BME280;40756;-37.950;145.008;2022-09-17T05:22:52;99600.45;;;12.26;55.07
54870;BME280;40756;-37.950;145.008;2022-09-17T05:25:22;99591.15;;;12.79;54.92
54870;BME280;40756;-37.950;145.008;2022-09-17T05:27:52;99581.55;;;12.66;53.77
54870;BME280;40756;-37.950;145.008;2022-09-17T05:30:22;99581.85;;;13.25;53.92
54870;BME280;40756;-37.950;145.008;2022-09-17T05:32:59;99578.34;;;13.01;53.15
54870;BME280;40756;-37.950;145.008;2022-09-17T05:35:30;99580.17;;;13.13;53.07
54870;BME280;40756;-37.950;145.008;2022-09-17T05:38:02;99582.69;;;12.91;52.50
54870;BME280;40756;-37.950;145.008;2022-09-17T05:40:31;99590.32;;;12.90;52.97
54870;BME280;40756;-37.950;145.008;2022-09-17T05:43:03;99609.49;;;12.63;53.47
54870;BME280;40756;-37.950;145.008;2022-09-17T05:45:35;99625.55;;;12.94;54.05
54870;BME280;40756;-37.950;145.008;2022-09-17T05:48:09;99649.53;;;12.61;55.50
54870;BME280;40756;-37.950;145.008;2022-09-17T05:50:39;99667.55;;;11.34;57.47
54870;BME280;40756;-37.950;145.008;2022-09-17T05:53:11;99659.97;;;11.14;55.36
54870;BME280;40756;-37.950;145.008;2022-09-17T05:55:41;99648.74;;;10.20;56.31
54870;BME280;40756;-37.950;145.008;2022-09-17T05:58:12;99645.19;;;10.56;56.54
54870;BME280;40756;-37.950;145.008;2022-09-17T06:00:43;99597.08;;;10.85;57.93
54870;BME280;40756;-37.950;145.008;2022-09-17T06:03:14;99619.32;;;10.46;59.52
54870;BME280;40756;-37.950;145.008;2022-09-17T06:05:53;99611.43;;;10.47;59.58
54870;BME280;40756;-37.950;145.008;2022-09-17T06:08:23;99614.96;;;10.28;59.26
54870;BME280;40756;-37.950;145.008;2022-09-17T06:10:54;99619.56;;;11.12;57.31
54870;BME280;40756;-37.950;145.008;2022-09-17T06:13:23;99622.43;;;10.75;58.34
54870;BME280;40756;-37.950;145.008;2022-09-17T06:15:54;99622.52;;;11.26;57.32
54870;BME280;40756;-37.950;145.008;2022-09-17T06:18:23;99621.91;;;10.72;57.19
54870;BME280;40756;-37.950;145.008;2022-09-17T06:20:54;99616.62;;;11.66;56.96
54870;BME280;40756;-37.950;145.008;2022-09-17T06:23:24;99612.04;;;11.08;56.95
54870;BME280;40756;-37.950;145.008;2022-09-17T06:25:55;99609.32;;;11.60;55.32
54870;BME280;40756;-37.950;145.008;2022-09-17T06:28:26;99603.98;;;11.62;54.61
54870;BME280;40756;-37.950;145.008;2022-09-17T06:30:59;99608.41;;;10.29;56.04
54870;BME280;40756;-37.950;145.008;2022-09-17T06:33:29;99609.75;;;11.05;55.39
54870;BME280;40756;-37.950;145.008;2022-09-17T06:36:00;99609.29;;;12.25;54.46
54870;BME280;40756;-37.950;145.008;2022-09-17T06:38:31;99600.21;;;12.97;53.92
54870;BME280;40756;-37.950;145.008;2022-09-17T06:41:01;99599.37;;;12.36;53.55
54870;BME280;40756;-37.950;145.008;2022-09-17T06:43:31;99604.62;;;12.48;53.60
54870;BME280;40756;-37.950;145.008;2022-09-17T06:46:03;99597.85;;;13.09;52.72
54870;BME280;40756;-37.950;145.008;2022-09-17T06:48:34;99591.65;;;13.29;53.69
54870;BME280;40756;-37.950;145.008;2022-09-17T06:51:07;99588.90;;;13.06;52.92
54870;BME280;40756;-37.950;145.008;2022-09-17T06:53:38;99601.74;;;13.62;52.39
54870;BME280;40756;-37.950;145.008;2022-09-17T06:56:09;99609.23;;;13.84;51.61
54870;BME280;40756;-37.950;145.008;2022-09-17T06:58:39;99616.64;;;13.56;52.33
54870;BME280;40756;-37.950;145.008;2022-09-17T07:01:09;99622.86;;;13.26;50.85
54870;BME280;40756;-37.950;145.008;2022-09-17T07:03:40;99619.08;;;12.65;48.56
54870;BME280;40756;-37.950;145.008;2022-09-17T07:06:10;99607.06;;;13.26;48.08
54870;BME280;40756;-37.950;145.008;2022-09-17T07:08:40;99603.43;;;13.35;48.63
54870;BME280;40756;-37.950;145.008;2022-09-17T07:11:09;99614.66;;;12.57;48.38
54870;BME280;40756;-37.950;145.008;2022-09-17T07:13:39;99630.80;;;12.32;49.10
54870;BME280;40756;-37.950;145.008;2022-09-17T07:16:10;99624.01;;;12.13;49.96
54870;BME280;40756;-37.950;145.008;2022-09-17T07:18:39;99623.60;;;12.88;49.32
54870;BME280;40756;-37.950;145.008;2022-09-17T07:21:10;99623.08;;;13.30;48.84
54870;BME280;40756;-37.950;145.008;2022-09-17T07:23:40;99637.58;;;12.55;49.09
54870;BME280;40756;-37.950;145.008;2022-09-17T07:26:13;99638.76;;;12.48;48.71
54870;BME280;40756;-37.950;145.008;2022-09-17T07:28:44;99640.86;;;12.95;48.25
54870;BME280;40756;-37.950;145.008;2022-09-17T07:31:13;99641.80;;;12.99;47.99
54870;BME280;40756;-37.950;145.008;2022-09-17T07:33:43;99642.02;;;12.54;48.64
54870;BME280;40756;-37.950;145.008;2022-09-17T07:36:14;99643.41;;;12.85;48.25
54870;BME280;40756;-37.950;145.008;2022-09-17T07:38:44;99647.60;;;12.25;47.92
54870;BME280;40756;-37.950;145.008;2022-09-17T07:41:15;99654.44;;;12.48;48.57
54870;BME280;40756;-37.950;145.008;2022-09-17T07:43:45;99656.00;;;12.42;47.75
54870;BME280;40756;-37.950;145.008;2022-09-17T07:46:16;99658.12;;;13.30;47.47
54870;BME280;40756;-37.950;145.008;2022-09-17T07:48:47;99674.63;;;12.29;46.78
54870;BME280;40756;-37.950;145.008;2022-09-17T07:51:18;99683.70;;;12.10;47.43
54870;BME280;40756;-37.950;145.008;2022-09-17T07:53:51;99684.76;;;11.89;47.16
54870;BME280;40756;-37.950;145.008;2022-09-17T07:56:22;99687.31;;;12.63;47.11
54870;BME280;40756;-37.950;145.008;2022-09-17T07:58:53;99693.69;;;12.06;47.49
54870;BME280;40756;-37.950;145.008;2022-09-17T08:01:23;99698.08;;;11.90;47.84
54870;BME280;40756;-37.950;145.008;2022-09-17T08:03:53;99707.83;;;12.13;47.63
54870;BME280;40756;-37.950;145.008;2022-09-17T08:06:24;99709.51;;;11.50;48.36
54870;BME280;40756;-37.950;145.008;2022-09-17T08:08:55;99727.63;;;12.07;47.67
54870;BME280;40756;-37.950;145.008;2022-09-17T08:11:26;99728.86;;;11.24;49.49
54870;BME280;40756;-37.950;145.008;2022-09-17T08:13:57;99734.99;;;12.03;48.59
54870;BME280;40756;-37.950;145.008;2022-09-17T08:16:26;99740.37;;;11.81;48.37
54870;BME280;40756;-37.950;145.008;2022-09-17T08:18:57;99748.41;;;11.86;48.83
54870;BME280;40756;-37.950;145.008;2022-09-17T08:21:27;99758.69;;;11.77;48.96
54870;BME280;40756;-37.950;145.008;2022-09-17T08:23:56;99767.18;;;11.47;49.17
54870;BME280;40756;-37.950;145.008;2022-09-17T08:26:26;99768.10;;;11.16;49.46
54870;BME280;40756;-37.950;145.008;2022-09-17T08:28:56;99777.68;;;12.29;48.34
54870;BME280;40756;-37.950;145.008;2022-09-17T08:31:26;99779.50;;;11.97;48.19
54870;BME280;40756;-37.950;145.008;2022-09-17T08:33:56;99781.68;;;11.75;49.00
54870;BME280;40756;-37.950;145.008;2022-09-17T08:36:26;99790.22;;;12.38;48.32
54870;BME280;40756;-37.950;145.008;2022-09-17T08:38:56;99788.59;;;12.46;49.17
54870;BME280;40756;-37.950;145.008;2022-09-17T08:41:31;99779.17;;;13.18;47.10
54870;BME280;40756;-37.950;145.008;2022-09-17T08:44:19;99787.13;;;12.84;46.66
54870;BME280;40756;-37.950;145.008;2022-09-17T08:46:53;99798.92;;;12.94;46.60
54870;BME280;40756;-37.950;145.008;2022-09-17T08:49:32;99807.14;;;11.82;48.17
54870;BME280;40756;-37.950;145.008;2022-09-17T08:52:17;99803.74;;;11.86;49.04
54870;BME280;40756;-37.950;145.008;2022-09-17T08:54:56;99809.77;;;12.65;47.85
54870;BME280;40756;-37.950;145.008;2022-09-17T08:57:32;99819.83;;;12.70;47.79
54870;BME280;40756;-37.950;145.008;2022-09-17T09:00:10;99819.72;;;12.63;48.02
54870;BME280;40756;-37.950;145.008;2022-09-17T09:02:55;99823.78;;;12.28;48.80
54870;BME280;40756;-37.950;145.008;2022-09-17T09:05:33;99836.54;;;12.13;50.06
54870;BME280;40756;-37.950;145.008;2022-09-17T09:08:10;99833.44;;;12.36;49.61
54870;BME280;40756;-37.950;145.008;2022-09-17T09:10:45;99846.04;;;12.07;50.93
54870;BME280;40756;-37.950;145.008;2022-09-17T09:13:19;99854.48;;;11.91;51.72
54870;BME280;40756;-37.950;145.008;2022-09-17T09:15:54;99854.00;;;11.54;53.46
54870;BME280;40756;-37.950;145.008;2022-09-17T09:18:29;99873.19;;;11.83;54.39
54870;BME280;40756;-37.950;145.008;2022-09-17T09:21:11;99869.17;;;11.57;55.67
54870;BME280;40756;-37.950;145.008;2022-09-17T09:23:53;99874.47;;;12.13;54.70
54870;BME280;40756;-37.950;145.008;2022-09-17T09:26:28;99890.24;;;11.09;56.39
54870;BME280;40756;-37.950;145.008;2022-09-17T09:29:08;99894.84;;;11.67;55.79
54870;BME280;40756;-37.950;145.008;2022-09-17T09:31:56;99895.06;;;11.59;56.28
54870;BME280;40756;-37.950;145.008;2022-09-17T09:34:29;99901.36;;;11.55;57.69
54870;BME280;40756;-37.950;145.008;2022-09-17T09:37:11;99903.22;;;11.25;58.11
54870;BME280;40756;-37.950;145.008;2022-09-17T09:39:43;99909.45;;;11.18;57.04
54870;BME280;40756;-37.950;145.008;2022-09-17T09:42:21;99907.18;;;11.45;57.30
54870;BME280;40756;-37.950;145.008;2022-09-17T09:44:53;99921.04;;;11.50;56.76
54870;BME280;40756;-37.950;145.008;2022-09-17T09:47:42;99929.53;;;11.29;57.59
54870;BME280;40756;-37.950;145.008;2022-09-17T09:50:26;99940.68;;;10.76;58.04
54870;BME280;40756;-37.950;145.008;2022-09-17T09:53:04;99941.46;;;11.17;57.03
54870;BME280;40756;-37.950;145.008;2022-09-17T09:55:52;99950.35;;;11.24;57.16
54870;BME280;40756;-37.950;145.008;2022-09-17T09:58:32;99951.62;;;10.76;58.20
54870;BME280;40756;-37.950;145.008;2022-09-17T10:01:07;99960.31;;;10.71;57.92
54870;BME280;40756;-37.950;145.008;2022-09-17T10:03:41;99962.69;;;10.85;57.87
54870;BME280;40756;-37.950;145.008;2022-09-17T10:06:12;99970.98;;;11.16;57.83
54870;BME280;40756;-37.950;145.008;2022-09-17T10:09:09;99981.82;;;11.41;56.68
54870;BME280;40756;-37.950;145.008;2022-09-17T10:11:39;99981.07;;;11.51;56.20
54870;BME280;40756;-37.950;145.008;2022-09-17T10:14:23;99985.43;;;11.58;55.99
54870;BME280;40756;-37.950;145.008;2022-09-17T10:17:15;99986.17;;;11.65;55.52
54870;BME280;40756;-37.950;145.008;2022-09-17T10:19:46;99990.40;;;11.88;54.90
54870;BME280;40756;-37.950;145.008;2022-09-17T10:22:33;99993.67;;;12.29;53.56
54870;BME280;40756;-37.950;145.008;2022-09-17T10:25:23;100002.10;;;11.49;53.57
54870;BME280;40756;-37.950;145.008;2022-09-17T10:27:56;100008.29;;;10.35;55.42
54870;BME280;40756;-37.950;145.008;2022-09-17T10:30:27;100012.60;;;12.16;53.31
54870;BME280;40756;-37.950;145.008;2022-09-17T10:33:30;100017.80;;;11.40;53.28
54870;BME280;40756;-37.950;145.008;2022-09-17T10:36:03;100022.66;;;11.44;53.20
54870;BME280;40756;-37.950;145.008;2022-09-17T10:38:36;100033.75;;;11.55;52.47
54870;BME280;40756;-37.950;145.008;2022-09-17T10:41:15;100028.80;;;12.16;52.18
54870;BME280;40756;-37.950;145.008;2022-09-17T10:43:46;100034.72;;;11.79;51.79
54870;BME280;40756;-37.950;145.008;2022-09-17T10:46:20;100044.62;;;12.01;51.79
54870;BME280;40756;-37.950;145.008;2022-09-17T10:49:06;100045.22;;;12.09;52.44
54870;BME280;40756;-37.950;145.008;2022-09-17T10:51:37;100048.12;;;11.48;52.28
54870;BME280;40756;-37.950;145.008;2022-09-17T10:54:20;100049.55;;;11.15;53.13
54870;BME280;40756;-37.950;145.008;2022-09-17T10:56:56;100056.62;;;11.29;53.08
54870;BME280;40756;-37.950;145.008;2022-09-17T10:59:46;100060.48;;;11.94;51.92
54870;BME280;40756;-37.950;145.008;2022-09-17T11:03:05;100062.91;;;11.77;52.15
54870;BME280;40756;-37.950;145.008;2022-09-17T11:05:51;100072.16;;;11.50;52.56
54870;BME280;40756;-37.950;145.008;2022-09-17T11:08:31;100068.34;;;11.41;52.10
54870;BME280;40756;-37.950;145.008;2022-09-17T11:11:08;100074.43;;;11.18;52.55
54870;BME280;40756;-37.950;145.008;2022-09-17T11:13:44;100081.48;;;11.20;52.82
54870;BME280;40756;-37.950;145.008;2022-09-17T11:16:26;100085.81;;;11.40;52.39
54870;BME280;40756;-37.950;145.008;2022-09-17T11:19:11;100086.45;;;11.83;51.89
54870;BME280;40756;-37.950;145.008;2022-09-17T11:21:46;100093.34;;;11.80;52.05
54870;BME280;40756;-37.950;145.008;2022-09-17T11:24:59;100095.80;;;11.25;52.28
54870;BME280;40756;-37.950;145.008;2022-09-17T11:27:57;100098.20;;;11.62;51.42
54870;BME280;40756;-37.950;145.008;2022-09-17T11:30:34;100097.29;;;11.76;51.27
54870;BME280;40756;-37.950;145.008;2022-09-17T11:33:23;100095.49;;;11.85;51.11
54870;BME280;40756;-37.950;145.008;2022-09-17T11:36:00;100098.86;;;11.15;51.23
54870;BME280;40756;-37.950;145.008;2022-09-17T11:38:39;100099.64;;;12.04;50.96
54870;BME280;40756;-37.950;145.008;2022-09-17T11:41:13;100104.53;;;11.65;50.98
54870;BME280;40756;-37.950;145.008;2022-09-17T11:43:49;100102.61;;;11.90;50.24
54870;BME280;40756;-37.950;145.008;2022-09-17T11:46:26;100106.15;;;11.64;50.68
54870;BME280;40756;-37.950;145.008;2022-09-17T11:49:03;100109.56;;;11.68;50.43
54870;BME280;40756;-37.950;145.008;2022-09-17T11:51:38;100112.67;;;11.88;50.49
54870;BME280;40756;-37.950;145.008;2022-09-17T11:54:19;100115.62;;;12.01;50.16
54870;BME280;40756;-37.950;145.008;2022-09-17T11:56:54;100112.89;;;12.64;50.13
54870;BME280;40756;-37.950;145.008;2022-09-17T11:59:32;100113.06;;;11.78;49.74
54870;BME280;40756;-37.950;145.008;2022-09-17T12:02:09;100119.30;;;12.40;48.98
54870;BME280;40756;-37.950;145.008;2022-09-17T12:04:46;100122.75;;;12.12;49.26
54870;BME280;40756;-37.950;145.008;2022-09-17T12:07:30;100125.30;;;11.94;49.85
54870;BME280;40756;-37.950;145.008;2022-09-17T12:10:28;100129.63;;;12.25;49.69
54870;BME280;40756;-37.950;145.008;2022-09-17T12:13:06;100130.83;;;12.03;50.16
54870;BME280;40756;-37.950;145.008;2022-09-17T12:15:43;100135.56;;;11.16;50.72
54870;BME280;40756;-37.950;145.008;2022-09-17T12:18:23;100136.34;;;11.19;51.33
54870;BME280;40756;-37.950;145.008;2022-09-17T12:20:57;100136.39;;;11.93;51.05
54870;BME280;40756;-37.950;145.008;2022-09-17T12:23:36;100136.75;;;11.63;50.47
54870;BME280;40756;-37.950;145.008;2022-09-17T12:26:15;100140.44;;;11.76;50.97
54870;BME280;40756;-37.950;145.008;2022-09-17T12:28:56;100135.97;;;12.19;50.79
54870;BME280;40756;-37.950;145.008;2022-09-17T12:31:33;100141.23;;;11.91;51.23
54870;BME280;40756;-37.950;145.008;2022-09-17T12:34:21;100135.92;;;11.96;50.61
54870;BME280;40756;-37.950;145.008;2022-09-17T12:37:01;100138.52;;;12.48;50.19
54870;BME280;40756;-37.950;145.008;2022-09-17T12:39:53;100139.92;;;12.35;49.97
54870;BME280;40756;-37.950;145.008;2022-09-17T12:42:36;100142.09;;;12.49;49.85
54870;BME280;40756;-37.950;145.008;2022-09-17T12:45:20;100145.76;;;11.87;50.01
54870;BME280;40756;-37.950;145.008;2022-09-17T12:48:09;100148.60;;;12.01;50.01
54870;BME280;40756;-37.950;145.008;2022-09-17T12:50:52;100150.46;;;11.86;50.27
54870;BME280;40756;-37.950;145.008;2022-09-17T12:53:29;100150.91;;;12.08;50.07
54870;BME280;40756;-37.950;145.008;2022-09-17T12:56:09;100148.00;;;11.51;49.91
54870;BME280;40756;-37.950;145.008;2022-09-17T12:59:03;100146.66;;;11.90;50.31
54870;BME280;40756;-37.950;145.008;2022-09-17T13:01:39;100147.58;;;11.73;50.40
54870;BME280;40756;-37.950;145.008;2022-09-17T13:04:22;100146.65;;;12.09;49.14
54870;BME280;40756;-37.950;145.008;2022-09-17T13:07:25;100156.90;;;12.09;49.32
54870;BME280;40756;-37.950;145.008;2022-09-17T13:10:17;100154.82;;;11.72;49.63